Time;durP1;ratioP1;P1;durP2;ratioP2;P2;SDS_P1;SDS_P2;PMS_P1;PMS_P2;Temp;Humidity;BMP_temperature;BMP_pressure;BME280_temperature;BME280_humidity;BME280_pressure;Samples;Min_cycle;Max_cycle;Signal;HPM_P1;HPM_P2
2022/05/02 00:00:10;;;;;;;11.53;9.60;;;;;;;7.78;87.20;101220.78;698479;28;1321;-45
2022/05/02 00:00:31;;;;;;;13.13;9.90;;;;;;;7.75;86.63;101213.78;698419;28;1317;-44
2022/05/02 00:00:51;;;;;;;13.67;10.30;;;;;;;7.76;86.58;101214.69;699155;28;4462;-45
2022/05/02 00:01:11;;;;;;;13.25;10.50;;;;;;;7.76;86.88;101217.28;699524;28;1013;-44
2022/05/02 00:01:32;;;;;;;14.53;10.20;;;;;;;7.75;87.10;101213.78;698285;28;1059;-44
2022/05/02 00:01:52;;;;;;;13.93;9.88;;;;;;;7.75;85.97;101212.94;699279;28;1929;-44
2022/05/02 00:02:13;;;;;;;13.47;10.10;;;;;;;7.77;86.09;101222.50;700784;28;1213;-45
2022/05/02 00:02:34;;;;;;;12.20;9.82;;;;;;;7.79;86.18;101212.97;697708;28;1095;-43
2022/05/02 00:02:54;;;;;;;13.05;9.88;;;;;;;7.82;86.24;101214.75;700182;28;1218;-44
2022/05/02 00:03:15;;;;;;;13.00;10.73;;;;;;;7.83;86.11;101216.53;698942;28;1095;-44
2022/05/02 00:03:35;;;;;;;13.00;10.48;;;;;;;7.82;86.42;101207.84;697933;28;3861;-45
2022/05/02 00:03:55;;;;;;;14.80;10.37;;;;;;;7.81;86.49;101219.09;696460;28;4565;-44
2022/05/02 00:04:16;;;;;;;14.82;10.50;;;;;;;7.82;86.43;101213.06;700305;28;1286;-44
2022/05/02 00:04:36;;;;;;;13.13;10.30;;;;;;;7.82;87.03;101212.16;699510;28;1185;-44
2022/05/02 00:04:56;;;;;;;12.60;10.43;;;;;;;7.80;86.68;101212.13;699600;28;1011;-45
2022/05/02 00:05:17;;;;;;;12.80;10.20;;;;;;;7.81;86.57;101208.69;701004;28;1169;-45
2022/05/02 00:05:38;;;;;;;12.47;9.90;;;;;;;7.81;86.27;101210.44;698893;28;1229;-44
2022/05/02 00:05:59;;;;;;;12.63;10.32;;;;;;;7.81;86.15;101213.03;698998;28;2002;-44
2022/05/02 00:06:19;;;;;;;11.97;9.83;;;;;;;7.82;85.62;101209.56;698191;28;1168;-44
2022/05/02 00:06:39;;;;;;;13.77;10.55;;;;;;;7.81;85.50;101206.09;699920;28;1098;-44
2022/05/02 00:07:00;;;;;;;13.77;10.53;;;;;;;7.82;86.12;101210.47;699947;27;4328;-44
2022/05/02 00:07:21;;;;;;;14.43;10.47;;;;;;;7.83;86.02;101221.72;700069;28;1132;-43
2022/05/02 00:07:41;;;;;;;13.60;10.10;;;;;;;7.83;86.01;101212.19;700195;28;1164;-45
2022/05/02 00:08:02;;;;;;;14.13;10.10;;;;;;;7.82;86.20;101215.66;699734;28;1181;-45
2022/05/02 00:08:23;;;;;;;12.05;9.98;;;;;;;7.84;86.43;101213.06;699217;28;1077;-44
2022/05/02 00:08:43;;;;;;;11.68;10.00;;;;;;;7.82;85.69;101213.06;698188;28;1047;-44
2022/05/02 00:09:04;;;;;;;12.73;10.23;;;;;;;7.82;86.41;101207.84;700719;28;1249;-44
2022/05/02 00:09:24;;;;;;;13.15;10.35;;;;;;;7.81;86.55;101213.91;699791;28;1273;-45
2022/05/02 00:09:44;;;;;;;12.60;10.30;;;;;;;7.82;86.41;101209.56;700330;28;4546;-45
2022/05/02 00:10:06;;;;;;;13.90;10.50;;;;;;;7.82;86.33;101212.16;699970;28;1232;-45
2022/05/02 00:10:26;;;;;;;12.82;10.43;;;;;;;7.83;85.41;101212.19;700704;28;1150;-44
2022/05/02 00:10:47;;;;;;;12.65;10.15;;;;;;;7.85;85.00;101214.84;700307;28;950;-45
2022/05/02 00:11:07;;;;;;;13.00;10.10;;;;;;;7.87;85.27;101217.47;699926;28;1118;-45
2022/05/02 00:11:27;;;;;;;12.27;9.97;;;;;;;7.90;85.58;101217.50;698898;28;1172;-43
2022/05/02 00:11:48;;;;;;;13.60;9.98;;;;;;;7.90;85.23;101212.28;699755;28;1570;-44
2022/05/02 00:12:09;;;;;;;12.43;9.80;;;;;;;7.92;84.85;101215.78;700851;28;1366;-43
2022/05/02 00:12:29;;;;;;;12.75;9.85;;;;;;;7.92;85.80;101214.06;699377;28;1094;-46
2022/05/02 00:12:49;;;;;;;12.85;9.90;;;;;;;7.89;86.26;101215.75;698571;28;4382;-44
2022/05/02 00:13:10;;;;;;;13.57;10.13;;;;;;;7.86;86.73;101220.91;696585;28;1135;-43
2022/05/02 00:13:31;;;;;;;13.23;10.25;;;;;;;7.83;85.50;101220.00;696979;28;1090;-43
2022/05/02 00:13:52;;;;;;;13.07;9.98;;;;;;;7.84;86.21;101213.94;697939;28;982;-45
2022/05/02 00:14:12;;;;;;;14.43;10.40;;;;;;;7.83;86.56;101212.19;700033;28;1251;-44
2022/05/02 00:14:33;;;;;;;16.37;10.20;;;;;;;7.83;85.79;101211.31;698677;28;1110;-44
2022/05/02 00:14:53;;;;;;;15.38;10.63;;;;;;;7.83;85.96;101217.38;699413;28;4519;-46
2022/05/02 00:15:14;;;;;;;13.00;9.93;;;;;;;7.86;85.44;101213.09;700169;28;1058;-43
2022/05/02 00:15:34;;;;;;;13.45;9.57;;;;;;;7.86;85.78;101213.09;698942;28;1570;-46
2022/05/02 00:15:54;;;;;;;13.13;10.20;;;;;;;7.87;85.23;101212.25;698972;28;4283;-44
2022/05/02 00:16:15;;;;;;;13.38;10.13;;;;;;;7.86;87.71;101219.16;698658;28;1157;-44
2022/05/02 00:16:36;;;;;;;12.80;9.90;;;;;;;7.86;86.22;101211.34;700125;28;1098;-44
2022/05/02 00:16:56;;;;;;;13.23;9.90;;;;;;;7.87;85.81;101214.84;698734;28;908;-44
2022/05/02 00:17:17;;;;;;;13.43;10.10;;;;;;;7.86;85.92;101213.09;699665;28;1078;-45
2022/05/02 00:17:56;;;;;;;12.10;10.20;;;;;;;7.83;85.99;101204.38;698024;28;1066;-43
2022/05/02 00:18:16;;;;;;;14.75;10.48;;;;;;;7.83;85.60;101209.56;698694;28;1252;-46
2022/05/02 00:18:36;;;;;;;13.50;10.23;;;;;;;7.82;86.16;101214.75;699244;28;1134;-45
2022/05/02 00:18:57;;;;;;;13.00;10.30;;;;;;;7.81;85.68;101213.91;699856;28;4552;-46
2022/05/02 00:19:17;;;;;;;13.07;9.98;;;;;;;7.80;86.68;101212.13;700868;28;1319;-45
2022/05/02 00:19:38;;;;;;;13.47;10.13;;;;;;;7.80;86.00;101206.06;699004;28;1074;-45
2022/05/02 00:19:58;;;;;;;12.68;10.35;;;;;;;7.80;86.68;101216.47;700685;28;1018;-43
2022/05/02 00:20:18;;;;;;;13.33;10.30;;;;;;;7.78;86.70;101212.97;700732;28;1165;-46
2022/05/02 00:20:40;;;;;;;14.50;10.48;;;;;;;7.77;86.65;101214.69;700442;28;1118;-44
2022/05/02 00:21:01;;;;;;;12.57;10.07;;;;;;;7.75;86.35;101208.59;697972;28;1082;-45
2022/05/02 00:21:21;;;;;;;12.23;9.93;;;;;;;7.74;85.77;101212.06;699387;28;1074;-44
2022/05/02 00:21:42;;;;;;;12.20;10.00;;;;;;;7.75;86.12;101207.72;697410;28;4399;-44
2022/05/02 00:22:02;;;;;;;11.30;9.80;;;;;;;7.72;86.51;101210.28;698533;28;1965;-45
2022/05/02 00:22:23;;;;;;;12.10;10.07;;;;;;;7.70;86.42;101210.25;699477;28;1082;-43
2022/05/02 00:22:44;;;;;;;12.67;10.37;;;;;;;7.71;85.79;101201.56;698755;28;1233;-44
2022/05/02 00:23:07;;;;;;;13.27;10.27;;;;;;;7.72;86.56;101205.94;699030;28;1300;-45
2022/05/02 00:23:28;;;;;;;12.70;10.27;;;;;;;7.73;86.16;101205.09;699876;28;1098;-44
2022/05/02 00:23:48;;;;;;;12.75;10.13;;;;;;;7.71;86.54;101204.19;699142;28;915;-44
2022/05/02 00:24:09;;;;;;;12.53;10.13;;;;;;;7.72;86.51;101210.28;699323;28;1063;-44
2022/05/02 00:24:30;;;;;;;13.48;10.07;;;;;;;7.73;86.87;101204.22;698345;28;1102;-44
2022/05/02 00:24:50;;;;;;;13.35;10.10;;;;;;;7.73;87.20;101204.22;699334;28;4439;-44
2022/05/02 00:25:11;;;;;;;12.47;10.13;;;;;;;7.70;86.65;101204.16;698720;28;1074;-46
2022/05/02 00:25:32;;;;;;;14.32;10.13;;;;;;;7.69;86.95;101205.91;699975;28;1085;-45
2022/05/02 00:25:53;;;;;;;13.13;10.63;;;;;;;7.67;87.04;101205.88;698730;28;1144;-44
2022/05/02 00:26:13;;;;;;;12.93;10.20;;;;;;;7.71;86.72;101208.53;699569;28;1147;-44
2022/05/02 00:26:33;;;;;;;12.67;10.00;;;;;;;7.70;86.11;101205.06;699054;28;1156;-44
2022/05/02 00:26:57;;;;;;;13.13;10.20;;;;;;;7.73;86.02;101202.50;697459;28;1143;-43
2022/05/02 00:27:17;;;;;;;12.40;10.40;;;;;;;7.74;86.30;101204.25;691768;28;1607;-48
2022/05/02 00:27:38;;;;;;;11.87;9.93;;;;;;;7.73;86.60;101205.09;693538;28;1217;-44
2022/05/02 00:27:59;;;;;;;12.60;10.30;;;;;;;7.73;86.15;101212.91;691542;28;4533;-44
2022/05/02 00:28:20;;;;;;;12.75;10.43;;;;;;;7.75;86.34;101203.38;688831;28;1425;-44
2022/05/02 00:28:40;;;;;;;12.80;10.30;;;;;;;7.83;86.38;101203.50;690115;28;1163;-44
2022/05/02 00:29:01;;;;;;;12.77;10.20;;;;;;;7.90;86.86;101205.34;692390;28;1086;-44
2022/05/02 00:29:21;;;;;;;13.00;9.77;;;;;;;7.97;87.19;101206.31;699122;28;1042;-45
2022/05/02 00:29:41;;;;;;;14.45;10.13;;;;;;;7.96;87.66;101201.94;696143;28;1039;-43
2022/05/02 00:30:02;;;;;;;13.10;9.90;;;;;;;7.94;87.07;101198.47;698733;28;984;-44
2022/05/02 00:30:23;;;;;;;11.65;9.55;;;;;;;7.92;86.24;101203.66;701401;28;1213;-44
2022/05/02 00:30:44;;;;;;;13.52;9.90;;;;;;;7.92;86.97;101207.97;699508;27;4405;-43
2022/05/02 00:31:04;;;;;;;13.53;9.57;;;;;;;7.91;86.23;101203.63;698315;28;1206;-46
2022/05/02 00:31:24;;;;;;;12.82;9.50;;;;;;;7.90;86.76;101207.94;698315;28;1257;-44
2022/05/02 00:31:45;;;;;;;11.63;9.63;;;;;;;7.89;88.36;101207.94;698735;28;1301;-44
2022/05/02 00:32:06;;;;;;;13.00;10.23;;;;;;;7.87;87.61;101202.69;699833;28;1058;-45
2022/05/02 00:32:26;;;;;;;11.77;9.90;;;;;;;7.86;87.33;101210.50;699566;28;969;-45
2022/05/02 00:32:47;;;;;;;11.77;9.40;;;;;;;7.83;86.79;101200.91;698829;28;1375;-43
2022/05/02 00:33:07;;;;;;;11.80;9.90;;;;;;;7.81;86.46;101203.50;699113;28;1137;-44
2022/05/02 00:33:28;;;;;;;12.43;10.10;;;;;;;7.82;85.84;101199.16;699615;28;1042;-46
2022/05/02 00:33:48;;;;;;;12.43;10.07;;;;;;;7.80;85.97;101203.47;699027;27;4432;-44
2022/05/02 00:34:08;;;;;;;12.97;9.80;;;;;;;7.79;86.29;101205.19;699962;28;1007;-44
2022/05/02 00:34:29;;;;;;;13.35;9.98;;;;;;;7.79;85.93;101199.97;699439;28;971;-45
2022/05/02 00:34:49;;;;;;;13.43;10.32;;;;;;;7.80;86.06;101198.25;698938;28;978;-44
2022/05/02 00:35:11;;;;;;;12.87;10.17;;;;;;;7.83;85.77;101201.75;698949;28;1070;-44
2022/05/02 00:35:31;;;;;;;12.27;9.70;;;;;;;7.84;85.76;101202.66;699639;27;1037;-44
2022/05/02 00:35:52;;;;;;;12.35;9.90;;;;;;;7.83;85.91;101199.16;700019;28;930;-44
2022/05/02 00:36:12;;;;;;;13.00;10.00;;;;;;;7.88;85.52;101199.25;700328;28;1090;-44
2022/05/02 00:36:32;;;;;;;12.38;10.02;;;;;;;7.87;85.83;101200.09;700190;28;990;-44
2022/05/02 00:36:53;;;;;;;12.93;10.13;;;;;;;7.87;85.88;101201.84;699163;28;4699;-44
2022/05/02 00:37:15;;;;;;;13.10;10.02;;;;;;;7.84;86.09;101203.53;700343;28;911;-44
2022/05/02 00:37:39;;;;;;;11.88;9.70;;;;;;;7.82;86.39;101189.63;698456;28;1117;-45
2022/05/02 00:37:59;;;;;;;14.07;10.07;;;;;;;7.82;86.81;101196.53;699227;28;981;-44
2022/05/02 00:38:20;;;;;;;13.33;9.73;;;;;;;7.81;86.87;101198.28;696671;28;1112;-46
2022/05/02 00:38:40;;;;;;;14.50;10.50;;;;;;;7.81;86.66;101193.06;696843;28;1158;-44
2022/05/02 00:39:00;;;;;;;13.47;10.40;;;;;;;7.79;86.25;101192.16;695453;28;1083;-44
2022/05/02 00:39:21;;;;;;;14.18;10.30;;;;;;;7.84;86.00;101193.13;693029;28;1495;-46
2022/05/02 00:39:41;;;;;;;13.33;10.20;;;;;;;7.84;86.01;101187.91;693879;28;4326;-45
2022/05/02 00:40:02;;;;;;;13.10;10.10;;;;;;;7.86;85.97;101193.13;694252;28;1194;-44
2022/05/02 00:40:23;;;;;;;12.38;10.10;;;;;;;7.84;85.51;101187.91;698219;28;1618;-44
2022/05/02 00:40:43;;;;;;;11.95;9.98;;;;;;;7.83;85.42;101193.97;696031;28;1573;-43
2022/05/02 00:41:03;;;;;;;11.30;9.73;;;;;;;7.81;86.04;101190.47;696865;28;1174;-43
2022/05/02 00:41:25;;;;;;;10.80;9.50;;;;;;;7.79;85.84;101189.56;699832;28;1287;-45
2022/05/02 00:41:46;;;;;;;12.20;9.77;;;;;;;7.78;86.27;101193.03;698751;28;1042;-44
2022/05/02 00:42:06;;;;;;;12.60;9.50;;;;;;;7.77;86.34;101186.06;698598;28;1972;-44
2022/05/02 00:42:27;;;;;;;12.60;9.85;;;;;;;7.76;86.51;101186.91;699242;28;1110;-44
2022/05/02 00:42:48;;;;;;;12.80;9.80;;;;;;;7.75;86.17;101187.75;700051;28;4358;-44
2022/05/02 00:43:08;;;;;;;11.90;9.48;;;;;;;7.74;86.34;101188.63;699956;28;964;-45
2022/05/02 00:43:29;;;;;;;10.93;9.23;;;;;;;7.75;86.52;101184.28;698752;28;1390;-44
2022/05/02 00:43:49;;;;;;;12.18;9.88;;;;;;;7.74;85.92;101180.84;699960;28;931;-45
2022/05/02 00:44:09;;;;;;;12.53;9.73;;;;;;;7.75;86.54;101181.69;700309;28;1130;-44
2022/05/02 00:44:30;;;;;;;12.33;9.67;;;;;;;7.75;86.72;101189.50;698999;28;1179;-46
2022/05/02 00:44:50;;;;;;;12.88;9.73;;;;;;;7.73;87.02;101192.09;699260;28;998;-44
2022/05/02 00:45:13;;;;;;;13.57;10.23;;;;;;;7.72;86.81;101187.72;700026;28;1196;-44
2022/05/02 00:45:37;;;;;;;13.25;10.40;;;;;;;7.70;86.59;101185.94;699530;28;1125;-44
2022/05/02 00:45:59;;;;;;;11.48;10.23;;;;;;;7.67;87.16;101181.59;698166;28;4274;-45
2022/05/02 00:46:24;;;;;;;14.30;10.65;;;;;;;7.66;87.58;101190.25;698587;28;1149;-43
2022/05/02 00:46:48;;;;;;;13.82;10.10;;;;;;;7.64;87.49;101179.81;699503;28;1476;-44
2022/05/02 00:47:09;;;;;;;12.73;10.30;;;;;;;7.63;87.31;101179.78;700707;28;1133;-46
2022/05/02 00:47:29;;;;;;;13.35;10.52;;;;;;;7.62;87.60;101185.84;697787;28;1078;-45
2022/05/02 00:47:51;;;;;;;13.53;10.13;;;;;;;7.60;87.68;101182.31;700345;28;1257;-44
2022/05/02 00:48:11;;;;;;;12.70;9.88;;;;;;;7.59;87.26;101180.59;700805;28;1053;-44
2022/05/02 00:48:32;;;;;;;13.37;10.13;;;;;;;7.58;89.10;101178.84;699199;28;1226;-44
2022/05/02 00:48:53;;;;;;;12.40;10.27;;;;;;;7.57;88.19;101182.28;698278;28;4424;-44
2022/05/02 00:49:15;;;;;;;12.85;10.40;;;;;;;7.55;87.37;101181.41;699635;28;1073;-45
2022/05/02 00:49:38;;;;;;;12.32;9.98;;;;;;;7.55;88.46;101181.41;698889;28;1074;-44
2022/05/02 00:49:58;;;;;;;14.90;10.18;;;;;;;7.53;88.41;101173.53;699910;28;1184;-44
2022/05/02 00:50:31;;;;;;;14.10;10.13;;;;;;;7.49;88.23;101180.44;701693;28;1089;-46
2022/05/02 00:50:54;;;;;;;13.38;9.98;;;;;;;7.49;88.32;101183.03;700684;28;1129;-44
2022/05/02 00:51:16;;;;;;;13.43;10.10;;;;;;;7.48;87.95;101178.69;698848;28;1360;-44
2022/05/02 00:51:38;;;;;;;12.57;10.20;;;;;;;7.48;88.05;101178.69;699881;28;1169;-44
2022/05/02 00:51:59;;;;;;;12.75;10.00;;;;;;;7.48;88.40;101185.63;696578;28;4447;-45
2022/05/02 00:52:20;;;;;;;12.47;10.10;;;;;;;7.47;87.95;101179.53;695679;28;1229;-45
2022/05/02 00:52:40;;;;;;;12.88;10.32;;;;;;;7.46;88.44;101175.19;696759;28;1398;-44
2022/05/02 00:53:04;;;;;;;12.02;10.00;;;;;;;7.47;88.83;101183.88;698680;28;1060;-44
2022/05/02 00:53:24;;;;;;;13.50;10.10;;;;;;;7.46;88.56;101177.78;700496;28;1293;-44
2022/05/02 00:53:47;;;;;;;12.63;10.27;;;;;;;7.46;88.65;101172.59;697696;28;1262;-44
2022/05/02 00:54:08;;;;;;;13.07;10.02;;;;;;;7.45;88.83;101181.25;700059;28;1109;-45
2022/05/02 00:54:28;;;;;;;12.23;9.70;;;;;;;7.46;88.45;101176.91;698097;27;1075;-44
2022/05/02 00:54:48;;;;;;;12.07;9.30;;;;;;;7.45;88.66;101173.44;698732;28;5353;-43
2022/05/02 00:55:09;;;;;;;13.47;9.83;;;;;;;7.45;88.92;101172.56;698834;28;1549;-43
2022/05/02 00:55:30;;;;;;;13.35;10.77;;;;;;;7.42;88.96;101165.59;699606;28;1146;-44
2022/05/02 00:55:51;;;;;;;12.73;10.55;;;;;;;7.44;88.56;101173.41;699775;28;1656;-45
2022/05/02 00:56:11;;;;;;;13.45;10.57;;;;;;;7.42;88.69;101176.00;698691;28;1122;-43
2022/05/02 00:56:32;;;;;;;13.60;10.60;;;;;;;7.41;88.48;101176.84;699601;28;1161;-45
2022/05/02 00:56:53;;;;;;;13.07;10.50;;;;;;;7.41;88.34;101175.97;698926;28;1060;-45
2022/05/02 00:57:15;;;;;;;13.13;9.73;;;;;;;7.41;88.60;101168.16;700959;28;1153;-44
2022/05/02 00:57:35;;;;;;;12.68;10.13;;;;;;;7.41;88.94;101175.97;700743;28;969;-45
2022/05/02 00:57:59;;;;;;;14.23;10.43;;;;;;;7.41;88.96;101179.44;699253;28;5359;-45
2022/05/02 00:58:19;;;;;;;13.93;10.23;;;;;;;7.41;89.07;101171.63;698978;28;1236;-44
2022/05/02 00:58:40;;;;;;;12.63;10.40;;;;;;;7.40;88.33;101167.28;700108;28;1236;-43
2022/05/02 00:59:01;;;;;;;12.20;10.25;;;;;;;7.41;88.16;101165.56;697841;28;1627;-46
2022/05/02 00:59:23;;;;;;;12.88;10.15;;;;;;;7.40;88.41;101172.47;699557;28;891;-46
2022/05/02 00:59:45;;;;;;;12.10;9.90;;;;;;;7.40;88.61;101169.88;699169;28;3689;-45
2022/05/02 01:00:06;;;;;;;13.02;9.95;;;;;;;7.42;88.92;101168.19;699517;28;1296;-44
2022/05/02 01:00:29;;;;;;;12.38;10.32;;;;;;;7.40;88.04;101172.47;698473;28;1122;-44
2022/05/02 01:00:49;;;;;;;11.70;9.77;;;;;;;7.41;88.75;101169.03;697130;28;4270;-44
2022/05/02 01:01:09;;;;;;;12.97;9.87;;;;;;;7.41;88.68;101166.44;696337;28;1055;-46
2022/05/02 01:01:30;;;;;;;12.60;10.18;;;;;;;7.42;88.95;101169.91;697572;28;1114;-44
2022/05/02 01:01:51;;;;;;;13.87;10.60;;;;;;;7.41;88.85;101162.97;697389;28;2011;-44
2022/05/02 01:02:14;;;;;;;12.85;10.13;;;;;;;7.44;88.55;101169.06;695409;28;1102;-43
2022/05/02 01:02:36;;;;;;;12.85;10.45;;;;;;;7.53;88.17;101170.06;696350;28;1095;-43
2022/05/02 01:02:57;;;;;;;13.43;10.60;;;;;;;7.54;87.77;101167.50;696998;28;1017;-44
2022/05/02 01:03:18;;;;;;;13.02;10.30;;;;;;;7.53;88.03;101167.47;698471;28;1153;-43
2022/05/02 01:03:38;;;;;;;13.37;9.83;;;;;;;7.52;88.55;101163.13;700249;28;1200;-44
2022/05/02 01:03:58;;;;;;;11.98;9.95;;;;;;;7.50;88.89;101161.38;696150;28;4488;-44
2022/05/02 01:04:19;;;;;;;11.37;9.70;;;;;;;7.54;88.71;101171.84;699161;28;1150;-44
2022/05/02 01:04:40;;;;;;;12.57;9.80;;;;;;;7.51;88.11;101162.25;698796;28;1260;-43
2022/05/02 01:05:00;;;;;;;12.97;10.23;;;;;;;7.49;88.14;101159.63;700390;28;1292;-45
2022/05/02 01:05:20;;;;;;;13.40;10.68;;;;;;;7.48;88.23;101162.22;699233;28;1090;-44
2022/05/02 01:07:11;;;;;;;13.68;10.32;;;;;;;7.45;89.10;101163.03;697259;28;4873;-44
2022/05/02 01:07:31;;;;;;;12.68;10.32;;;;;;;7.47;90.83;101161.31;699324;28;1067;-46
2022/05/02 01:07:52;;;;;;;12.80;10.13;;;;;;;7.45;90.48;101164.78;700345;28;1202;-44
2022/05/02 01:08:12;;;;;;;11.52;9.65;;;;;;;7.46;89.43;101167.38;700525;28;1156;-44
2022/05/02 01:08:33;;;;;;;12.23;9.52;;;;;;;7.46;89.96;101166.50;698728;28;1109;-45
2022/05/02 01:08:54;;;;;;;12.77;9.63;;;;;;;7.45;90.29;101160.44;699838;28;1282;-44
2022/05/02 01:09:14;;;;;;;12.30;9.55;;;;;;;7.47;90.62;101161.31;699758;28;1211;-44
2022/05/02 01:09:38;;;;;;;11.87;10.07;;;;;;;7.54;89.80;101164.91;698912;28;1093;-44
2022/05/02 01:09:58;;;;;;;13.38;10.20;;;;;;;7.54;89.38;101164.91;698911;28;4479;-44
2022/05/02 01:10:19;;;;;;;13.63;10.30;;;;;;;7.54;89.77;101164.91;699691;28;1160;-45
2022/05/02 01:10:40;;;;;;;13.45;10.18;;;;;;;7.53;89.38;101165.72;698535;28;1106;-45
2022/05/02 01:11:01;;;;;;;12.63;9.77;;;;;;;7.52;88.56;101160.50;699627;28;1133;-44
2022/05/02 01:11:21;;;;;;;11.50;9.80;;;;;;;7.53;88.14;101167.47;700837;28;1030;-44
2022/05/02 01:11:42;;;;;;;12.67;9.97;;;;;;;7.53;87.99;101162.28;699556;28;1094;-45
2022/05/02 01:12:02;;;;;;;11.52;9.20;;;;;;;7.53;88.44;101159.66;696866;28;1197;-43
2022/05/02 01:12:24;;;;;;;11.33;9.53;;;;;;;7.53;89.97;101163.13;697404;28;1019;-44
2022/05/02 01:12:47;;;;;;;11.60;9.50;;;;;;;7.53;88.57;101157.94;697080;28;4347;-43
2022/05/02 01:13:07;;;;;;;11.93;9.68;;;;;;;7.52;88.80;101160.50;699271;28;1113;-44
2022/05/02 01:13:38;;;;;;;12.25;9.70;;;;;;;7.53;88.45;101159.66;699720;28;1110;-45
2022/05/02 01:13:58;;;;;;;12.70;9.65;;;;;;;7.53;90.28;101163.13;698634;28;1084;-45
2022/05/02 01:14:19;;;;;;;12.70;9.80;;;;;;;7.53;90.87;101164.88;698730;28;987;-44
2022/05/02 01:14:42;;;;;;;14.27;10.10;;;;;;;7.53;89.94;101159.66;699361;28;4582;-44
2022/05/02 01:15:03;;;;;;;14.02;10.65;;;;;;;7.54;91.67;101166.63;698994;28;1121;-44
2022/05/02 01:15:23;;;;;;;12.13;10.17;;;;;;;7.55;90.90;101160.59;699800;28;1220;-43
2022/05/02 01:15:44;;;;;;;12.48;9.65;;;;;;;7.54;89.42;101164.03;697863;28;4443;-46
2022/05/02 01:16:14;;;;;;;12.23;9.53;;;;;;;7.53;90.08;101163.13;698103;28;1229;-44
2022/05/02 01:16:35;;;;;;;13.75;9.88;;;;;;;7.53;88.96;101160.53;699013;28;1153;-44
2022/05/02 01:16:55;;;;;;;12.80;10.02;;;;;;;7.53;88.59;101159.66;700518;28;938;-45
2022/05/02 01:17:16;;;;;;;13.07;9.50;;;;;;;7.52;90.71;101161.41;699527;28;1074;-44
2022/05/02 01:17:39;;;;;;;11.65;9.70;;;;;;;7.52;89.59;101165.72;699154;28;1279;-44
2022/05/02 01:17:59;;;;;;;11.38;9.80;;;;;;;7.50;88.53;101161.38;699054;28;1133;-44
2022/05/02 01:18:20;;;;;;;13.53;9.97;;;;;;;7.54;89.69;101161.44;699253;28;1113;-44
2022/05/02 01:18:42;;;;;;;13.93;10.13;;;;;;;7.55;89.04;101166.66;697988;28;1881;-44
2022/05/02 01:19:02;;;;;;;12.23;9.77;;;;;;;7.56;88.76;101163.22;696690;28;5894;-44
2022/05/02 01:19:23;;;;;;;10.85;9.65;;;;;;;7.55;89.00;101156.25;697359;28;1051;-45
2022/05/02 01:19:44;;;;;;;10.93;9.70;;;;;;;7.55;89.07;101161.44;696707;28;971;-45
2022/05/02 01:20:09;;;;;;;12.32;10.05;;;;;;;7.52;89.48;101163.13;697143;28;1830;-44
2022/05/02 01:20:29;;;;;;;11.68;9.57;;;;;;;7.52;88.25;101160.50;698756;28;1842;-44
2022/05/02 01:20:49;;;;;;;12.93;10.10;;;;;;;7.51;88.44;101162.25;696427;28;1043;-45
2022/05/02 01:21:13;;;;;;;13.93;9.97;;;;;;;7.53;88.85;101159.66;699747;28;1181;-46
2022/05/02 01:21:34;;;;;;;11.88;10.10;;;;;;;7.53;88.84;101164.88;699749;28;1022;-46
2022/05/02 01:21:55;;;;;;;11.25;9.77;;;;;;;7.52;88.49;101163.13;696952;28;4438;-44
2022/05/02 01:22:15;;;;;;;11.93;9.55;;;;;;;7.50;88.83;101164.00;698180;28;1149;-44
2022/05/02 01:22:36;;;;;;;11.53;10.20;;;;;;;7.49;88.42;101161.34;698593;28;1182;-45
2022/05/02 01:22:56;;;;;;;11.32;10.07;;;;;;;7.48;89.00;101163.06;699777;28;1069;-44
2022/05/02 01:23:16;;;;;;;11.27;10.03;;;;;;;7.48;88.93;101163.06;697903;28;1110;-44
2022/05/02 01:23:37;;;;;;;12.17;9.90;;;;;;;7.49;89.02;101169.13;698067;28;1344;-46
2022/05/02 01:24:00;;;;;;;12.93;9.55;;;;;;;7.47;89.30;101160.44;698768;28;1098;-44
2022/05/02 01:24:20;;;;;;;11.20;9.20;;;;;;;7.45;91.22;101168.22;695625;28;1095;-44
2022/05/02 01:24:45;;;;;;;12.25;10.07;;;;;;;7.47;92.40;101166.50;695263;28;4404;-43
2022/05/02 01:25:06;;;;;;;13.30;10.63;;;;;;;7.47;90.86;101161.31;698816;28;1539;-44
2022/05/02 01:25:26;;;;;;;11.73;10.33;;;;;;;7.49;89.79;101169.13;699110;28;1264;-44
2022/05/02 01:25:47;;;;;;;11.43;9.57;;;;;;;7.50;89.40;101160.50;696694;28;940;-46
2022/05/02 01:26:07;;;;;;;11.93;9.87;;;;;;;7.49;90.40;101164.84;698264;28;962;-44
2022/05/02 01:26:28;;;;;;;12.15;9.70;;;;;;;7.49;89.45;101157.03;695057;28;1090;-43
2022/05/02 01:26:49;;;;;;;12.38;9.73;;;;;;;7.49;89.54;101162.22;695789;28;1009;-44
2022/05/02 01:27:10;;;;;;;14.67;10.13;;;;;;;7.49;89.69;101164.84;697184;28;1216;-44
2022/05/02 01:27:31;;;;;;;12.73;9.73;;;;;;;7.48;89.92;101165.66;695165;28;1130;-44
2022/05/02 01:27:51;;;;;;;12.10;9.83;;;;;;;7.48;90.06;101170.88;695698;28;4908;-44
2022/05/02 01:28:11;;;;;;;12.77;10.20;;;;;;;7.47;89.91;101170.84;695997;28;1051;-44
2022/05/02 01:28:32;;;;;;;11.13;9.07;;;;;;;7.45;89.47;101165.63;698972;28;1123;-45
2022/05/02 01:28:55;;;;;;;12.25;9.45;;;;;;;7.44;89.50;101163.00;700469;28;994;-44
2022/05/02 01:29:15;;;;;;;11.70;9.57;;;;;;;7.44;89.16;101166.47;697892;28;1387;-45
2022/05/02 01:29:37;;;;;;;11.03;9.50;;;;;;;7.42;90.71;101165.59;699349;28;1340;-43
2022/05/02 01:29:58;;;;;;;11.80;10.13;;;;;;;7.37;90.55;101159.44;700130;28;1220;-45
2022/05/02 01:30:18;;;;;;;12.65;9.88;;;;;;;7.38;90.39;101169.00;700575;28;1054;-44
2022/05/02 01:30:38;;;;;;;12.40;9.77;;;;;;;7.39;90.86;101162.06;699970;28;1096;-45
2022/05/02 01:30:59;;;;;;;12.38;10.07;;;;;;;7.38;90.04;101160.28;696991;28;4532;-44
2022/05/02 01:31:20;;;;;;;11.53;9.37;;;;;;;7.39;90.12;101162.91;699144;28;951;-45
2022/05/02 01:31:41;;;;;;;12.15;10.10;;;;;;;7.39;90.23;101169.84;698956;28;1166;-44
2022/05/02 01:32:09;;;;;;;13.68;10.00;;;;;;;7.38;90.29;101161.19;696264;28;1180;-44
2022/05/02 01:32:29;;;;;;;12.20;9.70;;;;;;;7.39;90.32;101165.50;693811;28;1119;-44
2022/05/02 01:32:49;;;;;;;12.05;10.00;;;;;;;7.41;92.38;101165.56;696090;28;916;-45
2022/05/02 01:33:10;;;;;;;12.60;10.10;;;;;;;7.43;92.95;101162.13;696743;28;1166;-45
2022/05/02 01:33:33;;;;;;;13.43;10.13;;;;;;;7.45;92.60;101162.16;698425;28;929;-45
2022/05/02 01:33:54;;;;;;;13.32;10.20;;;;;;;7.44;92.31;101165.63;698944;28;4591;-46
2022/05/02 01:34:14;;;;;;;12.15;10.23;;;;;;;7.43;92.10;101164.72;698139;28;1424;-45
2022/05/02 01:34:36;;;;;;;13.20;10.00;;;;;;;7.42;91.84;101159.50;698408;28;1110;-44
2022/05/02 01:34:57;;;;;;;12.85;9.82;;;;;;;7.42;91.34;101163.00;698527;28;1081;-44
2022/05/02 01:35:17;;;;;;;12.20;10.05;;;;;;;7.41;91.59;101156.03;697316;28;1408;-44
2022/05/02 01:35:37;;;;;;;12.87;10.53;;;;;;;7.42;91.53;101157.78;696180;28;1040;-45
2022/05/02 01:35:58;;;;;;;13.27;10.30;;;;;;;7.41;91.80;101158.63;697249;28;953;-45
2022/05/02 01:36:20;;;;;;;12.88;9.55;;;;;;;7.40;91.84;101162.06;699914;28;1332;-44
2022/05/02 01:36:43;;;;;;;12.13;9.60;;;;;;;7.41;93.16;101156.03;696519;28;1062;-43
2022/05/02 01:37:03;;;;;;;13.55;10.13;;;;;;;7.39;93.49;101157.72;698236;28;4689;-44
2022/05/02 01:37:24;;;;;;;14.35;10.07;;;;;;;7.37;93.76;101155.97;699115;28;1205;-44
2022/05/02 01:37:44;;;;;;;12.77;10.03;;;;;;;7.37;92.95;101159.44;699286;28;1083;-44
2022/05/02 01:38:05;;;;;;;12.43;10.10;;;;;;;7.36;92.93;101157.66;700300;28;1137;-45
2022/05/02 01:38:25;;;;;;;11.53;10.03;;;;;;;7.35;93.23;101155.91;699376;28;1012;-45
2022/05/02 01:38:46;;;;;;;13.77;10.47;;;;;;;7.34;93.11;101169.78;697523;28;1079;-43
2022/05/02 01:39:06;;;;;;;13.93;10.20;;;;;;;7.36;92.21;101160.28;696551;28;1070;-43
2022/05/02 01:39:26;;;;;;;12.25;9.77;;;;;;;7.36;92.55;101155.06;695453;28;1344;-45
2022/05/02 01:39:47;;;;;;;12.27;9.57;;;;;;;7.37;91.72;101154.22;698355;28;4402;-44
2022/05/02 01:40:08;;;;;;;12.05;9.73;;;;;;;7.34;92.33;101162.00;695854;28;1181;-44
2022/05/02 01:40:28;;;;;;;13.05;9.95;;;;;;;7.35;91.88;101165.44;696490;28;957;-44
2022/05/02 01:40:48;;;;;;;12.03;9.50;;;;;;;7.36;91.61;101157.66;700704;28;1032;-45
2022/05/02 01:41:09;;;;;;;11.83;9.57;;;;;;;7.37;92.13;101156.81;698395;28;1014;-43
2022/05/02 01:41:29;;;;;;;12.30;9.73;;;;;;;7.38;90.99;101153.38;699764;28;916;-44